sensor_id;sensor_type;location;lat;lon;timestamp;pressure;altitude;pressure_sealevel;temperature
5571;BMP180;2808;51.240;6.794;2023-08-07T00:00:30;100710.00;;;14.10
5571;BMP180;2808;51.240;6.794;2023-08-07T00:02:57;100708.00;;;14.00
5571;BMP180;2808;51.240;6.794;2023-08-07T00:05:25;100710.00;;;14.00
5571;BMP180;2808;51.240;6.794;2023-08-07T00:07:53;100702.00;;;14.00
5571;BMP180;2808;51.240;6.794;2023-08-07T00:10:21;100712.00;;;14.00
5571;BMP180;2808;51.240;6.794;2023-08-07T00:12:48;100710.00;;;13.90
5571;BMP180;2808;51.240;6.794;2023-08-07T00:15:16;100713.00;;;13.90
5571;BMP180;2808;51.240;6.794;2023-08-07T00:17:43;100713.00;;;13.90
5571;BMP180;2808;51.240;6.794;2023-08-07T00:20:11;100706.00;;;14.00
5571;BMP180;2808;51.240;6.794;2023-08-07T00:22:38;100713.00;;;13.90
5571;BMP180;2808;51.240;6.794;2023-08-07T00:25:07;100718.00;;;13.90
5571;BMP180;2808;51.240;6.794;2023-08-07T00:27:35;100717.00;;;14.00
5571;BMP180;2808;51.240;6.794;2023-08-07T00:30:03;100717.00;;;14.00
5571;BMP180;2808;51.240;6.794;2023-08-07T00:32:30;100720.00;;;13.90
5571;BMP180;2808;51.240;6.794;2023-08-07T00:34:57;100721.00;;;13.90
5571;BMP180;2808;51.240;6.794;2023-08-07T00:37:25;100727.00;;;14.00
5571;BMP180;2808;51.240;6.794;2023-08-07T00:39:52;100717.00;;;13.90
5571;BMP180;2808;51.240;6.794;2023-08-07T00:42:21;100721.00;;;13.90
5571;BMP180;2808;51.240;6.794;2023-08-07T00:44:48;100722.00;;;14.00
5571;BMP180;2808;51.240;6.794;2023-08-07T00:47:15;100728.00;;;14.00
5571;BMP180;2808;51.240;6.794;2023-08-07T00:49:43;100733.00;;;13.90
5571;BMP180;2808;51.240;6.794;2023-08-07T00:52:10;100721.00;;;13.90
5571;BMP180;2808;51.240;6.794;2023-08-07T00:54:38;100728.00;;;13.90
5571;BMP180;2808;51.240;6.794;2023-08-07T00:57:10;100728.00;;;14.00
5571;BMP180;2808;51.240;6.794;2023-08-07T00:59:39;100716.00;;;13.90
5571;BMP180;2808;51.240;6.794;2023-08-07T01:02:07;100726.00;;;14.00
5571;BMP180;2808;51.240;6.794;2023-08-07T01:04:35;100731.00;;;14.00
5571;BMP180;2808;51.240;6.794;2023-08-07T01:07:02;100729.00;;;14.00
5571;BMP180;2808;51.240;6.794;2023-08-07T01:09:30;100731.00;;;14.00
5571;BMP180;2808;51.240;6.794;2023-08-07T01:12:02;100731.00;;;14.00
5571;BMP180;2808;51.240;6.794;2023-08-07T01:14:40;100737.00;;;14.00
5571;BMP180;2808;51.240;6.794;2023-08-07T01:17:11;100733.00;;;13.90
5571;BMP180;2808;51.240;6.794;2023-08-07T01:19:42;100738.00;;;13.90
5571;BMP180;2808;51.240;6.794;2023-08-07T01:22:12;100731.00;;;13.90
5571;BMP180;2808;51.240;6.794;2023-08-07T01:24:41;100728.00;;;13.90
5571;BMP180;2808;51.240;6.794;2023-08-07T01:27:24;100738.00;;;13.90
5571;BMP180;2808;51.240;6.794;2023-08-07T01:30:00;100737.00;;;13.90
5571;BMP180;2808;51.240;6.794;2023-08-07T01:32:43;100738.00;;;13.90
5571;BMP180;2808;51.240;6.794;2023-08-07T01:35:15;100736.00;;;14.00
5571;BMP180;2808;51.240;6.794;2023-08-07T01:37:46;100741.00;;;14.00
5571;BMP180;2808;51.240;6.794;2023-08-07T01:40:14;100737.00;;;14.00
5571;BMP180;2808;51.240;6.794;2023-08-07T01:42:44;100738.00;;;14.00
5571;BMP180;2808;51.240;6.794;2023-08-07T01:45:21;100728.00;;;14.00
5571;BMP180;2808;51.240;6.794;2023-08-07T01:47:53;100730.00;;;14.00
5571;BMP180;2808;51.240;6.794;2023-08-07T01:50:22;100737.00;;;14.00
5571;BMP180;2808;51.240;6.794;2023-08-07T01:52:51;100735.00;;;14.00
5571;BMP180;2808;51.240;6.794;2023-08-07T01:55:20;100736.00;;;13.90
5571;BMP180;2808;51.240;6.794;2023-08-07T01:57:47;100732.00;;;13.90
5571;BMP180;2808;51.240;6.794;2023-08-07T02:00:15;100745.00;;;13.80
5571;BMP180;2808;51.240;6.794;2023-08-07T02:02:42;100744.00;;;13.80
5571;BMP180;2808;51.240;6.794;2023-08-07T02:05:10;100755.00;;;13.80
5571;BMP180;2808;51.240;6.794;2023-08-07T02:07:38;100750.00;;;13.70
5571;BMP180;2808;51.240;6.794;2023-08-07T02:10:07;100751.00;;;13.70
5571;BMP180;2808;51.240;6.794;2023-08-07T02:12:35;100750.00;;;13.70
5571;BMP180;2808;51.240;6.794;2023-08-07T02:15:03;100749.00;;;13.70
5571;BMP180;2808;51.240;6.794;2023-08-07T02:17:34;100753.00;;;13.70
5571;BMP180;2808;51.240;6.794;2023-08-07T02:20:05;100751.00;;;13.60
5571;BMP180;2808;51.240;6.794;2023-08-07T02:22:33;100745.00;;;13.60
5571;BMP180;2808;51.240;6.794;2023-08-07T02:25:00;100754.00;;;13.60
5571;BMP180;2808;51.240;6.794;2023-08-07T02:27:29;100750.00;;;13.50
5571;BMP180;2808;51.240;6.794;2023-08-07T02:29:56;100755.00;;;13.50
5571;BMP180;2808;51.240;6.794;2023-08-07T02:32:23;100760.00;;;13.50
5571;BMP180;2808;51.240;6.794;2023-08-07T02:34:51;100756.00;;;13.50
5571;BMP180;2808;51.240;6.794;2023-08-07T02:37:18;100752.00;;;13.50
5571;BMP180;2808;51.240;6.794;2023-08-07T02:39:46;100754.00;;;13.50
5571;BMP180;2808;51.240;6.794;2023-08-07T02:42:14;100771.00;;;13.50
5571;BMP180;2808;51.240;6.794;2023-08-07T02:44:42;100759.00;;;13.50
5571;BMP180;2808;51.240;6.794;2023-08-07T02:47:10;100759.00;;;13.40
5571;BMP180;2808;51.240;6.794;2023-08-07T02:49:37;100766.00;;;13.40
5571;BMP180;2808;51.240;6.794;2023-08-07T02:52:05;100764.00;;;13.40
5571;BMP180;2808;51.240;6.794;2023-08-07T02:54:32;100765.00;;;13.40
5571;BMP180;2808;51.240;6.794;2023-08-07T02:57:00;100760.00;;;13.40
5571;BMP180;2808;51.240;6.794;2023-08-07T02:59:27;100767.00;;;13.40
5571;BMP180;2808;51.240;6.794;2023-08-07T03:01:57;100762.00;;;13.40
5571;BMP180;2808;51.240;6.794;2023-08-07T03:04:24;100757.00;;;13.40
5571;BMP180;2808;51.240;6.794;2023-08-07T03:06:51;100766.00;;;13.40
5571;BMP180;2808;51.240;6.794;2023-08-07T03:09:19;100772.00;;;13.30
5571;BMP180;2808;51.240;6.794;2023-08-07T03:11:46;100778.00;;;13.30
5571;BMP180;2808;51.240;6.794;2023-08-07T03:14:13;100777.00;;;13.40
5571;BMP180;2808;51.240;6.794;2023-08-07T03:16:41;100775.00;;;13.40
5571;BMP180;2808;51.240;6.794;2023-08-07T03:19:09;100778.00;;;13.40
5571;BMP180;2808;51.240;6.794;2023-08-07T03:21:37;100761.00;;;13.50
5571;BMP180;2808;51.240;6.794;2023-08-07T03:24:05;100765.00;;;13.40
5571;BMP180;2808;51.240;6.794;2023-08-07T03:26:32;100768.00;;;13.40
5571;BMP180;2808;51.240;6.794;2023-08-07T03:29:00;100767.00;;;13.40
5571;BMP180;2808;51.240;6.794;2023-08-07T03:31:27;100774.00;;;13.50
5571;BMP180;2808;51.240;6.794;2023-08-07T03:33:54;100768.00;;;13.40
5571;BMP180;2808;51.240;6.794;2023-08-07T03:36:23;100769.00;;;13.40
5571;BMP180;2808;51.240;6.794;2023-08-07T03:38:51;100773.00;;;13.40
5571;BMP180;2808;51.240;6.794;2023-08-07T03:41:18;100775.00;;;13.40
5571;BMP180;2808;51.240;6.794;2023-08-07T03:43:45;100773.00;;;13.40
5571;BMP180;2808;51.240;6.794;2023-08-07T03:46:13;100782.00;;;13.40
5571;BMP180;2808;51.240;6.794;2023-08-07T03:48:41;100775.00;;;13.40
5571;BMP180;2808;51.240;6.794;2023-08-07T03:51:08;100785.00;;;13.40
5571;BMP180;2808;51.240;6.794;2023-08-07T03:53:38;100789.00;;;13.40
5571;BMP180;2808;51.240;6.794;2023-08-07T03:56:05;100785.00;;;13.40
5571;BMP180;2808;51.240;6.794;2023-08-07T03:58:33;100774.00;;;13.40
5571;BMP180;2808;51.240;6.794;2023-08-07T04:01:00;100780.00;;;13.40
5571;BMP180;2808;51.240;6.794;2023-08-07T04:03:27;100784.00;;;13.40
5571;BMP180;2808;51.240;6.794;2023-08-07T04:05:55;100788.00;;;13.40
5571;BMP180;2808;51.240;6.794;2023-08-07T04:08:23;100783.00;;;13.40
5571;BMP180;2808;51.240;6.794;2023-08-07T04:11:00;100786.00;;;13.40
5571;BMP180;2808;51.240;6.794;2023-08-07T04:13:28;100786.00;;;13.40
5571;BMP180;2808;51.240;6.794;2023-08-07T04:15:55;100779.00;;;13.40
5571;BMP180;2808;51.240;6.794;2023-08-07T04:18:23;100782.00;;;13.40
5571;BMP180;2808;51.240;6.794;2023-08-07T04:20:52;100785.00;;;13.40
5571;BMP180;2808;51.240;6.794;2023-08-07T04:23:19;100774.00;;;13.40
5571;BMP180;2808;51.240;6.794;2023-08-07T04:25:48;100789.00;;;13.40
5571;BMP180;2808;51.240;6.794;2023-08-07T04:28:17;100784.00;;;13.40
5571;BMP180;2808;51.240;6.794;2023-08-07T04:30:45;100789.00;;;13.40
5571;BMP180;2808;51.240;6.794;2023-08-07T04:33:12;100791.00;;;13.40
5571;BMP180;2808;51.240;6.794;2023-08-07T04:35:40;100794.00;;;13.40
5571;BMP180;2808;51.240;6.794;2023-08-07T04:38:07;100786.00;;;13.50
5571;BMP180;2808;51.240;6.794;2023-08-07T04:40:34;100793.00;;;13.50
5571;BMP180;2808;51.240;6.794;2023-08-07T04:43:02;100792.00;;;13.50
5571;BMP180;2808;51.240;6.794;2023-08-07T04:45:30;100780.00;;;13.50
5571;BMP180;2808;51.240;6.794;2023-08-07T04:47:58;100788.00;;;13.50
5571;BMP180;2808;51.240;6.794;2023-08-07T04:50:25;100785.00;;;13.50
5571;BMP180;2808;51.240;6.794;2023-08-07T04:52:56;100786.00;;;13.50
5571;BMP180;2808;51.240;6.794;2023-08-07T04:55:23;100799.00;;;13.50
5571;BMP180;2808;51.240;6.794;2023-08-07T04:57:51;100791.00;;;13.50
5571;BMP180;2808;51.240;6.794;2023-08-07T05:00:20;100793.00;;;13.50
5571;BMP180;2808;51.240;6.794;2023-08-07T05:02:49;100791.00;;;13.50
5571;BMP180;2808;51.240;6.794;2023-08-07T05:05:17;100796.00;;;13.60
5571;BMP180;2808;51.240;6.794;2023-08-07T05:07:46;100794.00;;;13.60
5571;BMP180;2808;51.240;6.794;2023-08-07T05:10:13;100795.00;;;13.60
5571;BMP180;2808;51.240;6.794;2023-08-07T05:12:40;100791.00;;;13.50
5571;BMP180;2808;51.240;6.794;2023-08-07T05:15:08;100789.00;;;13.50
5571;BMP180;2808;51.240;6.794;2023-08-07T05:17:36;100793.00;;;13.50
5571;BMP180;2808;51.240;6.794;2023-08-07T05:20:07;100797.00;;;13.50
5571;BMP180;2808;51.240;6.794;2023-08-07T05:22:37;100794.00;;;13.50
5571;BMP180;2808;51.240;6.794;2023-08-07T05:25:05;100797.00;;;13.60
5571;BMP180;2808;51.240;6.794;2023-08-07T05:27:33;100796.00;;;13.60
5571;BMP180;2808;51.240;6.794;2023-08-07T05:30:00;100804.00;;;13.60
5571;BMP180;2808;51.240;6.794;2023-08-07T05:32:28;100797.00;;;13.60
5571;BMP180;2808;51.240;6.794;2023-08-07T05:34:55;100803.00;;;13.60
5571;BMP180;2808;51.240;6.794;2023-08-07T05:37:24;100803.00;;;13.50
5571;BMP180;2808;51.240;6.794;2023-08-07T05:39:55;100802.00;;;13.60
5571;BMP180;2808;51.240;6.794;2023-08-07T05:42:23;100804.00;;;13.60
5571;BMP180;2808;51.240;6.794;2023-08-07T05:44:50;100801.00;;;13.60
5571;BMP180;2808;51.240;6.794;2023-08-07T05:47:18;100802.00;;;13.60
5571;BMP180;2808;51.240;6.794;2023-08-07T05:49:46;100808.00;;;13.60
5571;BMP180;2808;51.240;6.794;2023-08-07T05:52:16;100808.00;;;13.60
5571;BMP180;2808;51.240;6.794;2023-08-07T05:54:51;100813.00;;;13.80
5571;BMP180;2808;51.240;6.794;2023-08-07T05:57:21;100812.00;;;13.80
5571;BMP180;2808;51.240;6.794;2023-08-07T05:59:49;100810.00;;;13.80
5571;BMP180;2808;51.240;6.794;2023-08-07T06:02:26;100812.00;;;13.80
5571;BMP180;2808;51.240;6.794;2023-08-07T06:04:58;100808.00;;;13.80
5571;BMP180;2808;51.240;6.794;2023-08-07T06:07:26;100817.00;;;13.80
5571;BMP180;2808;51.240;6.794;2023-08-07T06:09:57;100807.00;;;13.80
5571;BMP180;2808;51.240;6.794;2023-08-07T06:12:27;100820.00;;;13.80
5571;BMP180;2808;51.240;6.794;2023-08-07T06:15:04;100835.00;;;13.70
5571;BMP180;2808;51.240;6.794;2023-08-07T06:25:03;100833.00;;;13.80
5571;BMP180;2808;51.240;6.794;2023-08-07T06:28:02;100846.00;;;13.80
5571;BMP180;2808;51.240;6.794;2023-08-07T06:30:51;100839.00;;;13.70
5571;BMP180;2808;51.240;6.794;2023-08-07T06:33:26;100844.00;;;13.80
5571;BMP180;2808;51.240;6.794;2023-08-07T06:36:33;100847.00;;;13.80
5571;BMP180;2808;51.240;6.794;2023-08-07T06:39:08;100853.00;;;13.80
5571;BMP180;2808;51.240;6.794;2023-08-07T06:41:39;100857.00;;;13.80
5571;BMP180;2808;51.240;6.794;2023-08-07T06:44:08;100853.00;;;13.90
5571;BMP180;2808;51.240;6.794;2023-08-07T06:46:36;100858.00;;;13.90
5571;BMP180;2808;51.240;6.794;2023-08-07T06:49:04;100855.00;;;13.90
5571;BMP180;2808;51.240;6.794;2023-08-07T06:51:31;100859.00;;;13.90
5571;BMP180;2808;51.240;6.794;2023-08-07T06:53:59;100856.00;;;13.80
5571;BMP180;2808;51.240;6.794;2023-08-07T06:56:26;100860.00;;;13.80
5571;BMP180;2808;51.240;6.794;2023-08-07T06:58:55;100873.00;;;13.80
5571;BMP180;2808;51.240;6.794;2023-08-07T07:01:22;100859.00;;;13.70
5571;BMP180;2808;51.240;6.794;2023-08-07T07:03:53;100871.00;;;13.70
5571;BMP180;2808;51.240;6.794;2023-08-07T07:06:24;100883.00;;;13.70
5571;BMP180;2808;51.240;6.794;2023-08-07T07:09:13;100889.00;;;13.70
5571;BMP180;2808;51.240;6.794;2023-08-07T07:12:08;100884.00;;;13.70
5571;BMP180;2808;51.240;6.794;2023-08-07T07:14:52;100876.00;;;13.80
5571;BMP180;2808;51.240;6.794;2023-08-07T07:17:22;100894.00;;;13.70
5571;BMP180;2808;51.240;6.794;2023-08-07T07:19:50;100898.00;;;13.70
5571;BMP180;2808;51.240;6.794;2023-08-07T07:22:20;100891.00;;;13.70
5571;BMP180;2808;51.240;6.794;2023-08-07T07:24:48;100897.00;;;13.80
5571;BMP180;2808;51.240;6.794;2023-08-07T07:27:16;100908.00;;;13.80
5571;BMP180;2808;51.240;6.794;2023-08-07T07:29:49;100889.00;;;13.80
5571;BMP180;2808;51.240;6.794;2023-08-07T07:32:17;100908.00;;;13.80
5571;BMP180;2808;51.240;6.794;2023-08-07T07:34:44;100912.00;;;13.70
5571;BMP180;2808;51.240;6.794;2023-08-07T07:37:15;100901.00;;;13.70
5571;BMP180;2808;51.240;6.794;2023-08-07T07:39:44;100913.00;;;13.70
5571;BMP180;2808;51.240;6.794;2023-08-07T07:42:13;100914.00;;;13.70
5571;BMP180;2808;51.240;6.794;2023-08-07T07:44:41;100917.00;;;13.70
5571;BMP180;2808;51.240;6.794;2023-08-07T07:47:10;100934.00;;;13.70
5571;BMP180;2808;51.240;6.794;2023-08-07T07:49:43;100937.00;;;13.80
5571;BMP180;2808;51.240;6.794;2023-08-07T07:52:11;100941.00;;;13.80
5571;BMP180;2808;51.240;6.794;2023-08-07T07:54:39;100949.00;;;13.80
5571;BMP180;2808;51.240;6.794;2023-08-07T07:57:06;100954.00;;;13.80
5571;BMP180;2808;51.240;6.794;2023-08-07T07:59:34;100962.00;;;13.90
5571;BMP180;2808;51.240;6.794;2023-08-07T08:02:02;100966.00;;;13.90
5571;BMP180;2808;51.240;6.794;2023-08-07T08:04:30;100978.00;;;13.90
5571;BMP180;2808;51.240;6.794;2023-08-07T08:06:58;100979.00;;;13.90
5571;BMP180;2808;51.240;6.794;2023-08-07T08:09:26;100974.00;;;14.00
5571;BMP180;2808;51.240;6.794;2023-08-07T08:11:54;100985.00;;;14.00
5571;BMP180;2808;51.240;6.794;2023-08-07T08:14:21;100985.00;;;14.00
5571;BMP180;2808;51.240;6.794;2023-08-07T08:17:01;101002.00;;;14.10
5571;BMP180;2808;51.240;6.794;2023-08-07T08:19:34;100993.00;;;14.30
5571;BMP180;2808;51.240;6.794;2023-08-07T08:22:02;100997.00;;;14.40
5571;BMP180;2808;51.240;6.794;2023-08-07T08:24:29;101007.00;;;14.40
5571;BMP180;2808;51.240;6.794;2023-08-07T08:26:57;101011.00;;;14.50
5571;BMP180;2808;51.240;6.794;2023-08-07T08:29:25;101009.00;;;14.50
5571;BMP180;2808;51.240;6.794;2023-08-07T08:31:54;101008.00;;;14.50
5571;BMP180;2808;51.240;6.794;2023-08-07T08:34:22;101014.00;;;14.50
5571;BMP180;2808;51.240;6.794;2023-08-07T08:36:50;101018.00;;;14.50
5571;BMP180;2808;51.240;6.794;2023-08-07T08:39:18;101014.00;;;14.50
5571;BMP180;2808;51.240;6.794;2023-08-07T08:41:47;101011.00;;;14.70
5571;BMP180;2808;51.240;6.794;2023-08-07T08:44:15;101015.00;;;14.80
5571;BMP180;2808;51.240;6.794;2023-08-07T08:46:44;101023.00;;;14.90
5571;BMP180;2808;51.240;6.794;2023-08-07T08:49:14;101024.00;;;15.00
5571;BMP180;2808;51.240;6.794;2023-08-07T08:51:43;101010.00;;;15.00
5571;BMP180;2808;51.240;6.794;2023-08-07T08:54:13;101012.00;;;15.30
5571;BMP180;2808;51.240;6.794;2023-08-07T08:56:41;101018.00;;;15.50
5571;BMP180;2808;51.240;6.794;2023-08-07T08:59:12;101020.00;;;15.80
5571;BMP180;2808;51.240;6.794;2023-08-07T09:01:40;101018.00;;;16.20
5571;BMP180;2808;51.240;6.794;2023-08-07T09:04:07;101020.00;;;16.50
5571;BMP180;2808;51.240;6.794;2023-08-07T09:06:36;101025.00;;;16.80
5571;BMP180;2808;51.240;6.794;2023-08-07T09:09:06;101022.00;;;17.10
5571;BMP180;2808;51.240;6.794;2023-08-07T09:11:36;101034.00;;;17.50
5571;BMP180;2808;51.240;6.794;2023-08-07T09:14:05;101035.00;;;17.90
5571;BMP180;2808;51.240;6.794;2023-08-07T09:16:33;101032.00;;;18.30
5571;BMP180;2808;51.240;6.794;2023-08-07T09:19:02;101036.00;;;18.60
5571;BMP180;2808;51.240;6.794;2023-08-07T09:21:30;101027.00;;;18.60
5571;BMP180;2808;51.240;6.794;2023-08-07T09:23:58;101036.00;;;18.20
5571;BMP180;2808;51.240;6.794;2023-08-07T09:26:25;101045.00;;;17.70
5571;BMP180;2808;51.240;6.794;2023-08-07T09:28:55;101049.00;;;17.30
5571;BMP180;2808;51.240;6.794;2023-08-07T09:31:24;101054.00;;;17.10
5571;BMP180;2808;51.240;6.794;2023-08-07T09:33:52;101048.00;;;16.80
5571;BMP180;2808;51.240;6.794;2023-08-07T09:36:20;101054.00;;;16.60
5571;BMP180;2808;51.240;6.794;2023-08-07T09:38:50;101049.00;;;16.50
5571;BMP180;2808;51.240;6.794;2023-08-07T09:41:18;101060.00;;;16.60
5571;BMP180;2808;51.240;6.794;2023-08-07T09:43:49;101054.00;;;16.80
5571;BMP180;2808;51.240;6.794;2023-08-07T09:46:18;101063.00;;;17.00
5571;BMP180;2808;51.240;6.794;2023-08-07T09:48:46;101075.00;;;17.00
5571;BMP180;2808;51.240;6.794;2023-08-07T09:51:13;101063.00;;;17.00
5571;BMP180;2808;51.240;6.794;2023-08-07T09:53:41;101065.00;;;16.90
5571;BMP180;2808;51.240;6.794;2023-08-07T09:56:08;101071.00;;;16.80
5571;BMP180;2808;51.240;6.794;2023-08-07T09:58:36;101086.00;;;16.70
5571;BMP180;2808;51.240;6.794;2023-08-07T10:01:08;101091.00;;;16.60
5571;BMP180;2808;51.240;6.794;2023-08-07T10:04:02;101080.00;;;16.80
5571;BMP180;2808;51.240;6.794;2023-08-07T10:06:30;101078.00;;;17.00
5571;BMP180;2808;51.240;6.794;2023-08-07T10:09:00;101080.00;;;17.20
5571;BMP180;2808;51.240;6.794;2023-08-07T10:51:07;101058.00;;;19.50
5571;BMP180;2808;51.240;6.794;2023-08-07T10:53:47;101065.00;;;19.40
5571;BMP180;2808;51.240;6.794;2023-08-07T10:56:28;101046.00;;;19.30
5571;BMP180;2808;51.240;6.794;2023-08-07T11:02:50;101076.00;;;18.90
5571;BMP180;2808;51.240;6.794;2023-08-07T11:09:29;101086.00;;;19.20
5571;BMP180;2808;51.240;6.794;2023-08-07T11:12:08;101086.00;;;19.40
5571;BMP180;2808;51.240;6.794;2023-08-07T11:18:00;101088.00;;;19.40
5571;BMP180;2808;51.240;6.794;2023-08-07T11:20:38;101090.00;;;19.40
5571;BMP180;2808;51.240;6.794;2023-08-07T11:23:48;101086.00;;;19.30
5571;BMP180;2808;51.240;6.794;2023-08-07T11:26:08;101092.00;;;19.20
5571;BMP180;2808;51.240;6.794;2023-08-07T11:28:37;101072.00;;;19.30
5571;BMP180;2808;51.240;6.794;2023-08-07T11:31:08;101085.00;;;19.50
5571;BMP180;2808;51.240;6.794;2023-08-07T11:33:38;101092.00;;;19.70
5571;BMP180;2808;51.240;6.794;2023-08-07T11:36:19;101082.00;;;19.80
5571;BMP180;2808;51.240;6.794;2023-08-07T11:38:59;101088.00;;;20.00
5571;BMP180;2808;51.240;6.794;2023-08-07T11:41:35;101077.00;;;20.20
5571;BMP180;2808;51.240;6.794;2023-08-07T11:44:03;101092.00;;;20.30
5571;BMP180;2808;51.240;6.794;2023-08-07T11:46:31;101083.00;;;20.10
5571;BMP180;2808;51.240;6.794;2023-08-07T11:48:59;101094.00;;;19.90
5571;BMP180;2808;51.240;6.794;2023-08-07T11:51:32;101092.00;;;19.80
5571;BMP180;2808;51.240;6.794;2023-08-07T11:54:07;101085.00;;;19.80
5571;BMP180;2808;51.240;6.794;2023-08-07T11:56:42;101101.00;;;19.80
5571;BMP180;2808;51.240;6.794;2023-08-07T11:59:12;101106.00;;;19.90
5571;BMP180;2808;51.240;6.794;2023-08-07T12:01:51;101106.00;;;20.00
5571;BMP180;2808;51.240;6.794;2023-08-07T12:04:31;101109.00;;;19.80
5571;BMP180;2808;51.240;6.794;2023-08-07T12:07:04;101119.00;;;19.70
5571;BMP180;2808;51.240;6.794;2023-08-07T12:09:47;101106.00;;;19.60
5571;BMP180;2808;51.240;6.794;2023-08-07T12:12:18;101113.00;;;19.70
5571;BMP180;2808;51.240;6.794;2023-08-07T12:14:46;101109.00;;;19.90
5571;BMP180;2808;51.240;6.794;2023-08-07T12:17:16;101113.00;;;20.10
5571;BMP180;2808;51.240;6.794;2023-08-07T12:19:44;101102.00;;;20.30
5571;BMP180;2808;51.240;6.794;2023-08-07T12:22:13;101103.00;;;20.40
5571;BMP180;2808;51.240;6.794;2023-08-07T12:24:46;101110.00;;;20.30
5571;BMP180;2808;51.240;6.794;2023-08-07T12:27:16;101099.00;;;20.20
5571;BMP180;2808;51.240;6.794;2023-08-07T12:29:52;101106.00;;;20.20
5571;BMP180;2808;51.240;6.794;2023-08-07T12:32:31;101106.00;;;20.40
5571;BMP180;2808;51.240;6.794;2023-08-07T12:35:04;101116.00;;;20.50
5571;BMP180;2808;51.240;6.794;2023-08-07T12:37:53;101124.00;;;20.50
5571;BMP180;2808;51.240;6.794;2023-08-07T12:40:32;101108.00;;;20.50
5571;BMP180;2808;51.240;6.794;2023-08-07T12:43:07;101112.00;;;20.60
5571;BMP180;2808;51.240;6.794;2023-08-07T12:45:51;101104.00;;;20.60
5571;BMP180;2808;51.240;6.794;2023-08-07T12:48:22;101109.00;;;20.60
5571;BMP180;2808;51.240;6.794;2023-08-07T12:51:13;101112.00;;;20.40
5571;BMP180;2808;51.240;6.794;2023-08-07T12:53:51;101104.00;;;20.30
5571;BMP180;2808;51.240;6.794;2023-08-07T13:02:38;101095.00;;;20.20
5571;BMP180;2808;51.240;6.794;2023-08-07T13:05:06;101114.00;;;20.10
5571;BMP180;2808;51.240;6.794;2023-08-07T13:07:34;101114.00;;;20.00
5571;BMP180;2808;51.240;6.794;2023-08-07T13:10:03;101118.00;;;20.00
5571;BMP180;2808;51.240;6.794;2023-08-07T13:12:38;101118.00;;;20.00
5571;BMP180;2808;51.240;6.794;2023-08-07T13:15:12;101130.00;;;20.00
5571;BMP180;2808;51.240;6.794;2023-08-07T13:17:40;101130.00;;;20.10
5571;BMP180;2808;51.240;6.794;2023-08-07T13:20:13;101133.00;;;20.20
5571;BMP180;2808;51.240;6.794;2023-08-07T13:22:46;101129.00;;;20.30
5571;BMP180;2808;51.240;6.794;2023-08-07T13:25:28;101136.00;;;20.30
5571;BMP180;2808;51.240;6.794;2023-08-07T13:28:00;101139.00;;;20.30
5571;BMP180;2808;51.240;6.794;2023-08-07T13:30:35;101128.00;;;20.40
5571;BMP180;2808;51.240;6.794;2023-08-07T13:33:25;101128.00;;;20.50
5571;BMP180;2808;51.240;6.794;2023-08-07T13:35:56;101120.00;;;20.70
5571;BMP180;2808;51.240;6.794;2023-08-07T13:38:35;101127.00;;;20.80
5571;BMP180;2808;51.240;6.794;2023-08-07T13:41:03;101127.00;;;20.80
5571;BMP180;2808;51.240;6.794;2023-08-07T13:43:33;101121.00;;;20.90
5571;BMP180;2808;51.240;6.794;2023-08-07T13:46:19;101126.00;;;20.80
5571;BMP180;2808;51.240;6.794;2023-08-07T13:48:47;101121.00;;;20.70
5571;BMP180;2808;51.240;6.794;2023-08-07T13:51:16;101133.00;;;20.60
5571;BMP180;2808;51.240;6.794;2023-08-07T13:53:46;101139.00;;;20.60
5571;BMP180;2808;51.240;6.794;2023-08-07T13:56:21;101130.00;;;20.40
5571;BMP180;2808;51.240;6.794;2023-08-07T13:58:56;101135.00;;;20.30
5571;BMP180;2808;51.240;6.794;2023-08-07T14:01:29;101127.00;;;20.20
5571;BMP180;2808;51.240;6.794;2023-08-07T14:04:08;101138.00;;;20.20
5571;BMP180;2808;51.240;6.794;2023-08-07T14:06:35;101124.00;;;20.10
5571;BMP180;2808;51.240;6.794;2023-08-07T14:09:05;101134.00;;;20.00
5571;BMP180;2808;51.240;6.794;2023-08-07T14:11:35;101136.00;;;20.00
5571;BMP180;2808;51.240;6.794;2023-08-07T14:14:07;101145.00;;;20.00
5571;BMP180;2808;51.240;6.794;2023-08-07T14:16:43;101151.00;;;20.00
5571;BMP180;2808;51.240;6.794;2023-08-07T14:19:26;101142.00;;;20.10
5571;BMP180;2808;51.240;6.794;2023-08-07T14:21:56;101144.00;;;20.20
5571;BMP180;2808;51.240;6.794;2023-08-07T14:24:24;101155.00;;;20.30
5571;BMP180;2808;51.240;6.794;2023-08-07T14:27:00;101146.00;;;20.40
5571;BMP180;2808;51.240;6.794;2023-08-07T14:29:28;101154.00;;;20.40
5571;BMP180;2808;51.240;6.794;2023-08-07T14:31:57;101163.00;;;20.20
5571;BMP180;2808;51.240;6.794;2023-08-07T14:34:58;101164.00;;;20.00
5571;BMP180;2808;51.240;6.794;2023-08-07T14:37:26;101164.00;;;19.90
5571;BMP180;2808;51.240;6.794;2023-08-07T14:39:57;101164.00;;;20.10
5571;BMP180;2808;51.240;6.794;2023-08-07T14:42:25;101166.00;;;20.20
5571;BMP180;2808;51.240;6.794;2023-08-07T14:44:54;101166.00;;;20.20
5571;BMP180;2808;51.240;6.794;2023-08-07T14:47:23;101168.00;;;20.30
5571;BMP180;2808;51.240;6.794;2023-08-07T14:49:51;101169.00;;;20.30
5571;BMP180;2808;51.240;6.794;2023-08-07T14:52:19;101169.00;;;20.30
5571;BMP180;2808;51.240;6.794;2023-08-07T14:54:47;101177.00;;;20.40
5571;BMP180;2808;51.240;6.794;2023-08-07T14:57:19;101170.00;;;20.50
5571;BMP180;2808;51.240;6.794;2023-08-07T14:59:49;101181.00;;;20.50
5571;BMP180;2808;51.240;6.794;2023-08-07T15:02:23;101178.00;;;20.40
5571;BMP180;2808;51.240;6.794;2023-08-07T15:04:51;101184.00;;;20.20
5571;BMP180;2808;51.240;6.794;2023-08-07T15:07:19;101179.00;;;20.20
5571;BMP180;2808;51.240;6.794;2023-08-07T15:09:46;101179.00;;;20.30
5571;BMP180;2808;51.240;6.794;2023-08-07T15:12:16;101182.00;;;20.40
5571;BMP180;2808;51.240;6.794;2023-08-07T15:14:46;101184.00;;;20.50
5571;BMP180;2808;51.240;6.794;2023-08-07T15:17:14;101173.00;;;20.60
5571;BMP180;2808;51.240;6.794;2023-08-07T15:19:43;101183.00;;;20.70
5571;BMP180;2808;51.240;6.794;2023-08-07T15:22:12;101179.00;;;20.70
5571;BMP180;2808;51.240;6.794;2023-08-07T15:24:40;101174.00;;;20.70
5571;BMP180;2808;51.240;6.794;2023-08-07T15:27:08;101187.00;;;20.60
5571;BMP180;2808;51.240;6.794;2023-08-07T15:29:35;101195.00;;;20.30
5571;BMP180;2808;51.240;6.794;2023-08-07T15:32:09;101199.00;;;20.20
5571;BMP180;2808;51.240;6.794;2023-08-07T15:34:37;101206.00;;;19.90
5571;BMP180;2808;51.240;6.794;2023-08-07T15:37:06;101226.00;;;19.50
5571;BMP180;2808;51.240;6.794;2023-08-07T15:39:40;101229.00;;;19.00
5571;BMP180;2808;51.240;6.794;2023-08-07T15:42:16;101232.00;;;18.90
5571;BMP180;2808;51.240;6.794;2023-08-07T15:44:45;101224.00;;;18.70